Time;durP1;ratioP1;P1;durP2;ratioP2;P2;SDS_P1;SDS_P2;PMS_P1;PMS_P2;Temp;Humidity;BMP_temperature;BMP_pressure;BME280_temperature;BME280_humidity;BME280_pressure;Samples;Min_cycle;Max_cycle;Signal;HPM_P1;HPM_P2
2022/01/15 00:02:15;;;;;;;27.40;15.82;;;;;;;;;;5064281;28;20106;-50
2022/01/15 00:04:41;;;;;;;22.15;14.52;;;;;;;;;;5068461;28;20398;-51
2022/01/15 00:07:07;;;;;;;26.42;15.90;;;;;;;;;;5065620;28;20491;-49
2022/01/15 00:09:33;;;;;;;26.83;15.15;;;;;;;;;;5058302;28;20045;-50
2022/01/15 00:11:59;;;;;;;20.95;14.15;;;;;;;;;;5063476;28;20390;-49
2022/01/15 00:14:31;;;;;;;28.55;15.63;;;;;;;;;;5063858;28;20037;-50
2022/01/15 00:17:06;;;;;;;20.23;13.45;;;;;;;;;;5066597;28;20086;-48
2022/01/15 00:19:50;;;;;;;25.27;14.77;;;;;;;;;;5064896;28;20201;-50
2022/01/15 00:22:19;;;;;;;23.63;14.85;;;;;;;;;;5068988;28;20050;-51
2022/01/15 00:24:46;;;;;;;21.65;14.88;;;;;;;;;;5066778;28;20052;-52
2022/01/15 00:27:13;;;;;;;21.42;15.07;;;;;;;;;;5062620;28;20036;-48
2022/01/15 00:29:39;;;;;;;26.35;16.15;;;;;;;;;;5065856;28;20047;-51
2022/01/15 00:32:06;;;;;;;29.30;15.20;;;;;;;;;;5059939;28;20140;-52
2022/01/15 00:34:32;;;;;;;25.85;15.50;;;;;;;;;;5063402;28;20041;-51
2022/01/15 00:36:58;;;;;;;24.02;15.70;;;;;;;;;;5062684;28;20544;-52
2022/01/15 00:39:25;;;;;;;26.67;15.82;;;;;;;;;;5060217;28;20406;-53
2022/01/15 00:41:52;;;;;;;24.40;15.10;;;;;;;;;;5058713;28;20055;-52
2022/01/15 00:44:18;;;;;;;22.88;14.70;;;;;;;;;;5065247;28;20097;-52
2022/01/15 00:46:44;;;;;;;23.15;14.90;;;;;;;;;;5066193;28;20048;-53
2022/01/15 00:49:10;;;;;;;28.75;15.77;;;;;;;;;;5061614;28;20216;-53
2022/01/15 00:51:37;;;;;;;26.08;14.77;;;;;;;;;;5063900;28;20223;-53
2022/01/15 00:54:03;;;;;;;23.52;14.73;;;;;;;;;;5067534;28;20028;-51
2022/01/15 00:56:29;;;;;;;21.15;13.70;;;;;;;;;;5065888;28;20037;-51
2022/01/15 00:58:56;;;;;;;23.63;14.98;;;;;;;;;;5063808;28;20057;-52
2022/01/15 01:01:22;;;;;;;26.17;15.25;;;;;;;;;;5063770;28;20076;-50
2022/01/15 01:03:48;;;;;;;20.90;14.18;;;;;;;;;;5066110;28;20078;-51
2022/01/15 01:06:14;;;;;;;24.40;15.27;;;;;;;;;;5063353;28;20125;-51
2022/01/15 01:08:40;;;;;;;22.70;13.20;;;;;;;;;;5067611;28;20482;-51
2022/01/15 01:11:12;;;;;;;23.17;13.05;;;;;;;;;;5060530;28;20044;-49
2022/01/15 01:20:04;;;;;;;18.92;12.20;;;;;;;;;;5063698;28;20185;-52
2022/01/15 01:22:45;;;;;;;16.27;12.30;;;;;;;;;;5062301;28;20071;-51
2022/01/15 01:24:44;;;;;;;22.35;13.30;;;;;;;;;;5062337;28;20128;-53
2022/01/15 01:27:17;;;;;;;21.00;13.77;;;;;;;;;;5062732;28;20059;-51
2022/01/15 01:32:54;;;;;;;23.05;13.13;;;;;;;;;;5063847;28;20045;-51
2022/01/15 01:35:16;;;;;;;19.42;12.73;;;;;;;;;;5065631;28;20052;-52
2022/01/15 01:37:48;;;;;;;23.00;13.50;;;;;;;;;;5061595;28;20090;-47
2022/01/15 01:42:53;;;;;;;24.65;14.18;;;;;;;;;;5060889;28;20068;-49
2022/01/15 01:45:19;;;;;;;22.40;13.60;;;;;;;;;;5063567;28;20094;-47
2022/01/15 01:47:45;;;;;;;27.33;14.07;;;;;;;;;;5063447;28;20040;-48
2022/01/15 01:50:13;;;;;;;23.13;14.02;;;;;;;;;;5070602;28;20044;-49
2022/01/15 01:52:39;;;;;;;23.58;14.55;;;;;;;;;;5069024;28;20036;-48
2022/01/15 01:55:06;;;;;;;23.85;14.02;;;;;;;;;;5060574;28;20041;-51
2022/01/15 01:57:32;;;;;;;25.58;14.90;;;;;;;;;;5064075;28;20116;-51
2022/01/15 01:59:58;;;;;;;26.40;15.50;;;;;;;;;;5062633;28;20056;-49
2022/01/15 02:02:24;;;;;;;24.05;14.60;;;;;;;;;;5061872;28;20076;-49
2022/01/15 02:04:51;;;;;;;25.33;15.00;;;;;;;;;;5061518;28;20435;-49
2022/01/15 02:07:17;;;;;;;24.02;15.68;;;;;;;;;;5065308;28;20040;-49
2022/01/15 02:09:43;;;;;;;23.92;14.88;;;;;;;;;;5062280;28;20041;-49
2022/01/15 02:12:09;;;;;;;23.95;14.85;;;;;;;;;;5061164;28;20045;-52
2022/01/15 02:14:36;;;;;;;24.27;15.48;;;;;;;;;;5063636;28;20415;-49
2022/01/15 02:17:02;;;;;;;25.00;15.35;;;;;;;;;;5057632;28;20088;-47
2022/01/15 02:19:31;;;;;;;22.65;14.65;;;;;;;;;;5060801;28;20052;-50
2022/01/15 02:24:42;;;;;;;25.17;14.63;;;;;;;;;;5064445;28;20135;-50
2022/01/15 02:27:08;;;;;;;21.75;14.73;;;;;;;;;;5063370;28;20449;-49
2022/01/15 02:29:34;;;;;;;22.15;14.82;;;;;;;;;;5061547;28;20040;-49
2022/01/15 02:32:00;;;;;;;23.17;15.10;;;;;;;;;;5060599;28;20041;-49
2022/01/15 02:34:26;;;;;;;21.98;14.55;;;;;;;;;;5063283;28;20049;-50
2022/01/15 02:36:52;;;;;;;27.05;14.82;;;;;;;;;;5065457;28;20036;-49
2022/01/15 02:39:18;;;;;;;21.63;14.68;;;;;;;;;;5065949;28;20082;-48
2022/01/15 02:41:44;;;;;;;24.23;14.60;;;;;;;;;;5063364;28;20041;-50
2022/01/15 02:44:16;;;;;;;22.63;14.63;;;;;;;;;;5061519;28;20041;-49
2022/01/15 02:49:14;;;;;;;18.13;13.38;;;;;;;;;;5055789;28;20041;-48
2022/01/15 02:51:40;;;;;;;24.08;14.68;;;;;;;;;;5057250;28;20032;-48
2022/01/15 02:54:07;;;;;;;22.95;15.20;;;;;;;;;;5061328;28;20098;-48
2022/01/15 02:56:40;;;;;;;22.83;14.35;;;;;;;;;;5059707;28;20037;-49
2022/01/15 02:59:08;;;;;;;19.92;14.23;;;;;;;;;;5061995;28;20049;-49
2022/01/15 03:01:34;;;;;;;19.67;14.10;;;;;;;;;;5062067;28;20041;-50
2022/01/15 03:04:00;;;;;;;29.52;15.68;;;;;;;;;;5059906;28;20324;-47
2022/01/15 03:06:26;;;;;;;23.60;14.93;;;;;;;;;;5062276;28;20065;-48
2022/01/15 03:08:53;;;;;;;21.08;15.02;;;;;;;;;;5056188;28;20053;-49
2022/01/15 03:11:19;;;;;;;26.50;15.18;;;;;;;;;;5058468;28;20052;-47
2022/01/15 03:13:46;;;;;;;22.02;13.45;;;;;;;;;;5062722;28;20037;-47
2022/01/15 03:16:17;;;;;;;19.17;13.68;;;;;;;;;;5064318;28;20056;-49
2022/01/15 03:18:43;;;;;;;19.85;13.65;;;;;;;;;;5060852;28;20040;-48
2022/01/15 03:21:09;;;;;;;22.77;13.32;;;;;;;;;;5060650;28;20045;-48
2022/01/15 03:23:36;;;;;;;22.75;13.55;;;;;;;;;;5058910;28;20084;-48
2022/01/15 03:26:02;;;;;;;20.48;12.73;;;;;;;;;;5061157;28;20048;-49
2022/01/15 03:28:28;;;;;;;19.50;12.57;;;;;;;;;;5063132;28;20119;-48
2022/01/15 03:30:54;;;;;;;19.98;13.23;;;;;;;;;;5064511;28;20048;-50
2022/01/15 03:33:20;;;;;;;17.58;11.95;;;;;;;;;;5062784;28;20375;-48
2022/01/15 03:35:46;;;;;;;21.00;12.68;;;;;;;;;;5060367;28;20041;-49
2022/01/15 03:38:12;;;;;;;18.33;11.93;;;;;;;;;;5060284;28;20045;-48
2022/01/15 03:40:38;;;;;;;17.38;11.93;;;;;;;;;;5057719;28;20033;-49
2022/01/15 03:43:05;;;;;;;18.55;11.52;;;;;;;;;;5061786;28;20047;-49
2022/01/15 03:45:31;;;;;;;22.05;11.60;;;;;;;;;;5061571;28;20044;-52
2022/01/15 03:47:57;;;;;;;17.80;11.70;;;;;;;;;;5067524;28;20454;-48
2022/01/15 03:50:24;;;;;;;17.70;11.00;;;;;;;;;;5062830;28;20080;-49
2022/01/15 03:52:51;;;;;;;16.38;10.68;;;;;;;;;;5071574;28;20063;-51
2022/01/15 03:55:17;;;;;;;17.63;10.63;;;;;;;;;;5063177;28;20131;-53
2022/01/15 03:57:43;;;;;;;14.50;10.18;;;;;;;;;;5064574;28;20059;-50
2022/01/15 04:00:11;;;;;;;15.85;11.40;;;;;;;;;;5064247;28;20048;-49
2022/01/15 04:02:37;;;;;;;13.65;9.32;;;;;;;;;;5066346;28;20444;-52
2022/01/15 04:05:03;;;;;;;18.58;10.75;;;;;;;;;;5064125;28;20051;-48
2022/01/15 04:07:29;;;;;;;15.18;10.07;;;;;;;;;;5071372;28;20497;-51
2022/01/15 04:09:55;;;;;;;13.85;10.30;;;;;;;;;;5058786;28;20040;-49
2022/01/15 04:12:21;;;;;;;13.35;10.02;;;;;;;;;;5061549;28;20048;-48
2022/01/15 04:14:47;;;;;;;15.02;9.77;;;;;;;;;;5054863;28;20052;-47
2022/01/15 04:17:13;;;;;;;14.10;10.18;;;;;;;;;;5064652;28;20044;-50
2022/01/15 04:19:40;;;;;;;16.13;10.30;;;;;;;;;;5062525;28;20464;-51
2022/01/15 04:22:07;;;;;;;17.88;10.00;;;;;;;;;;5059897;28;20057;-50
2022/01/15 04:24:33;;;;;;;12.52;10.00;;;;;;;;;;5067408;28;20094;-49
2022/01/15 04:26:59;;;;;;;14.63;9.77;;;;;;;;;;5062362;28;20040;-47
2022/01/15 04:29:25;;;;;;;14.75;10.10;;;;;;;;;;5064691;28;20140;-47
2022/01/15 04:31:51;;;;;;;14.73;10.85;;;;;;;;;;5063175;28;20052;-52
2022/01/15 04:34:30;;;;;;;16.27;10.25;;;;;;;;;;5062678;28;20132;-48
2022/01/15 04:37:05;;;;;;;17.75;10.68;;;;;;;;;;5066144;28;20056;-52
2022/01/15 04:39:31;;;;;;;15.57;10.63;;;;;;;;;;5063119;28;20051;-48
2022/01/15 04:41:57;;;;;;;14.68;10.30;;;;;;;;;;5060909;28;20063;-47
2022/01/15 04:44:23;;;;;;;14.35;10.48;;;;;;;;;;5063730;28;20048;-47
2022/01/15 04:46:49;;;;;;;13.20;9.07;;;;;;;;;;5063216;28;20130;-48
2022/01/15 04:49:15;;;;;;;12.20;8.75;;;;;;;;;;5064714;28;20048;-49
2022/01/15 04:51:41;;;;;;;10.90;8.80;;;;;;;;;;5067487;28;20479;-47
2022/01/15 04:54:08;;;;;;;11.15;8.38;;;;;;;;;;5065538;28;20094;-47
2022/01/15 04:56:34;;;;;;;11.63;8.60;;;;;;;;;;5060883;28;20102;-48
2022/01/15 04:59:00;;;;;;;10.65;8.15;;;;;;;;;;5063280;28;20048;-51
2022/01/15 05:01:28;;;;;;;11.20;8.02;;;;;;;;;;5062516;28;20059;-47
2022/01/15 05:03:54;;;;;;;11.20;7.57;;;;;;;;;;5060528;28;20473;-48
2022/01/15 05:06:20;;;;;;;11.20;7.97;;;;;;;;;;5060812;28;20036;-49
2022/01/15 05:08:46;;;;;;;10.02;7.53;;;;;;;;;;5060998;28;20082;-49
2022/01/15 05:11:28;;;;;;;9.48;7.63;;;;;;;;;;5067430;28;20044;-48
2022/01/15 05:13:54;;;;;;;8.73;7.03;;;;;;;;;;5063145;28;20044;-48
2022/01/15 05:16:20;;;;;;;8.57;6.85;;;;;;;;;;5061090;28;20139;-50
2022/01/15 05:18:46;;;;;;;8.90;6.95;;;;;;;;;;5064307;28;20123;-48
2022/01/15 05:21:12;;;;;;;8.38;6.40;;;;;;;;;;5063443;28;20043;-48
2022/01/15 05:23:38;;;;;;;8.30;6.93;;;;;;;;;;5062687;28;20045;-50
2022/01/15 05:26:04;;;;;;;9.50;6.90;;;;;;;;;;5062311;28;20052;-51
2022/01/15 05:28:30;;;;;;;10.05;7.30;;;;;;;;;;5068118;28;20040;-48
2022/01/15 05:30:56;;;;;;;10.02;7.32;;;;;;;;;;5068787;28;20044;-49
2022/01/15 05:33:22;;;;;;;9.98;6.95;;;;;;;;;;5068218;28;20316;-53
2022/01/15 05:35:48;;;;;;;8.38;6.53;;;;;;;;;;5062061;28;20410;-49
2022/01/15 05:38:14;;;;;;;7.30;5.97;;;;;;;;;;5059614;28;20036;-49
2022/01/15 05:40:40;;;;;;;10.07;6.57;;;;;;;;;;5062697;28;20414;-49
2022/01/15 05:43:06;;;;;;;10.45;6.57;;;;;;;;;;5062329;28;20072;-48
2022/01/15 05:45:33;;;;;;;9.23;6.72;;;;;;;;;;5064243;28;20076;-50
2022/01/15 05:47:59;;;;;;;9.02;6.35;;;;;;;;;;5063812;28;20071;-49
2022/01/15 05:50:25;;;;;;;9.85;6.78;;;;;;;;;;5062782;28;20044;-50
2022/01/15 05:52:51;;;;;;;9.02;6.40;;;;;;;;;;5063185;28;20078;-50
2022/01/15 05:55:17;;;;;;;10.02;7.00;;;;;;;;;;5061854;28;20036;-50
2022/01/15 05:57:43;;;;;;;10.80;8.10;;;;;;;;;;5061100;28;20041;-47
2022/01/15 06:00:09;;;;;;;9.93;6.85;;;;;;;;;;5061262;28;20033;-50
2022/01/15 06:02:35;;;;;;;15.45;9.32;;;;;;;;;;5066857;28;20060;-49
2022/01/15 06:05:01;;;;;;;14.35;9.75;;;;;;;;;;5061327;28;20052;-49
2022/01/15 06:07:27;;;;;;;15.07;9.65;;;;;;;;;;5060840;28;20398;-48
2022/01/15 06:09:53;;;;;;;14.55;9.43;;;;;;;;;;5064211;28;20044;-49
2022/01/15 06:12:27;;;;;;;9.82;7.43;;;;;;;;;;5059389;28;20036;-52
2022/01/15 06:14:53;;;;;;;12.57;8.88;;;;;;;;;;5059975;28;21296;-52
2022/01/15 06:17:19;;;;;;;11.77;8.57;;;;;;;;;;5061107;28;20052;-50
2022/01/15 06:19:45;;;;;;;13.02;8.77;;;;;;;;;;5059128;28;20045;-51
2022/01/15 06:22:11;;;;;;;15.80;9.23;;;;;;;;;;5062683;28;20051;-52
2022/01/15 06:24:37;;;;;;;13.57;9.20;;;;;;;;;;5064885;28;20113;-53
2022/01/15 06:27:03;;;;;;;13.85;9.43;;;;;;;;;;5064465;28;20087;-51
2022/01/15 06:29:30;;;;;;;12.48;9.15;;;;;;;;;;5064406;28;20164;-52
2022/01/15 06:31:56;;;;;;;14.60;8.43;;;;;;;;;;5062279;28;20505;-51
2022/01/15 06:34:22;;;;;;;11.63;8.68;;;;;;;;;;5057368;28;20056;-51
2022/01/15 06:36:48;;;;;;;9.98;7.88;;;;;;;;;;5062618;28;20047;-51
2022/01/15 06:39:14;;;;;;;11.13;7.57;;;;;;;;;;5059904;28;20189;-51
2022/01/15 06:41:40;;;;;;;9.82;7.25;;;;;;;;;;5061999;28;20043;-51
2022/01/15 06:44:06;;;;;;;12.38;8.63;;;;;;;;;;5060659;28;20048;-52
2022/01/15 06:46:32;;;;;;;13.57;8.80;;;;;;;;;;5057485;28;20048;-53
2022/01/15 06:48:58;;;;;;;12.30;9.25;;;;;;;;;;5062303;28;20469;-54
2022/01/15 06:51:25;;;;;;;13.27;9.50;;;;;;;;;;5061645;28;20041;-52
2022/01/15 06:53:51;;;;;;;14.15;9.57;;;;;;;;;;5067546;28;20044;-53
2022/01/15 06:56:17;;;;;;;13.15;8.90;;;;;;;;;;5063504;28;20124;-51
2022/01/15 06:58:43;;;;;;;12.77;9.43;;;;;;;;;;5064913;28;20060;-50
2022/01/15 07:01:09;;;;;;;15.02;9.35;;;;;;;;;;5058314;28;20045;-52
2022/01/15 07:03:35;;;;;;;11.65;8.38;;;;;;;;;;5060629;28;20483;-49
2022/01/15 07:06:01;;;;;;;12.10;8.93;;;;;;;;;;5060833;28;20041;-50
2022/01/15 07:08:27;;;;;;;13.55;8.50;;;;;;;;;;5063434;28;20520;-49
2022/01/15 07:10:53;;;;;;;12.38;8.38;;;;;;;;;;5063757;28;20048;-49
2022/01/15 07:13:20;;;;;;;13.57;9.13;;;;;;;;;;5063908;28;20040;-50
2022/01/15 07:15:47;;;;;;;12.73;8.75;;;5.30;99.90;;;;;;5066217;28;20067;-51
2022/01/15 07:18:13;;;;;;;11.73;9.23;;;5.50;99.90;;;;;;5059882;28;20045;-50
2022/01/15 07:20:38;;;;;;;12.73;8.25;;;5.50;99.90;;;;;;5062286;28;20044;-54
2022/01/15 07:23:04;;;;;;;11.07;7.78;;;5.40;99.90;;;;;;5065407;28;20170;-51
2022/01/15 07:25:29;;;;;;;12.10;8.52;;;5.40;99.90;;;;;;5064393;28;20041;-50
2022/01/15 07:27:55;;;;;;;13.23;8.55;;;5.40;99.90;;;;;;5063886;28;20397;-51
2022/01/15 07:30:21;;;;;;;11.15;7.75;;;5.50;99.90;;;;;;5060303;28;20049;-49
2022/01/15 07:32:47;;;;;;;12.88;9.13;;;5.40;99.90;;;;;;5061685;28;20045;-50
2022/01/15 07:35:12;;;;;;;13.90;9.70;;;5.40;99.90;;;;;;5065253;28;20044;-54
2022/01/15 07:37:38;;;;;;;14.80;9.90;;;5.40;99.90;;;;;;5062383;28;20058;-51
2022/01/15 07:40:06;;;;;;;14.48;9.90;;;5.40;99.90;;;;;;5062297;28;20378;-53
2022/01/15 07:42:36;;;;;;;15.70;10.63;;;5.40;99.90;;;;;;5061447;28;20048;-50
2022/01/15 07:45:07;;;;;;;16.60;10.93;;;5.40;99.90;;;;;;5066432;28;20040;-51
2022/01/15 07:47:33;;;;;;;18.70;11.30;;;5.40;99.90;;;;;;5065742;28;20041;-50
2022/01/15 07:49:58;;;;;;;18.08;11.75;;;5.40;99.90;;;;;;5062946;28;20086;-49
2022/01/15 07:52:25;;;;;;;18.98;12.85;;;5.40;99.90;;;;;;5067454;28;20044;-52
2022/01/15 07:54:50;;;;;;;19.98;13.10;;;5.40;99.90;;;;;;5066271;28;20169;-49
2022/01/15 07:57:16;;;;;;;17.90;12.70;;;5.40;99.90;;;;;;5064735;28;20142;-52
2022/01/15 07:59:41;;;;;;;16.00;11.57;;;5.40;99.90;;;;;;5061650;28;20063;-48
2022/01/15 08:02:07;;;;;;;18.40;12.15;;;5.40;99.90;;;;;;5064017;28;20049;-49
2022/01/15 08:04:32;;;;;;;16.83;11.52;;;5.40;99.90;;;;;;5064566;28;20085;-49
2022/01/15 08:06:58;;;;;;;17.45;11.35;;;5.40;99.90;;;;;;5064720;28;20033;-50
2022/01/15 08:09:24;;;;;;;15.82;11.00;;;5.30;99.90;;;;;;5063590;28;20422;-48
2022/01/15 08:11:49;;;;;;;16.67;11.27;;;5.30;99.90;;;;;;5067873;28;20091;-48
2022/01/15 08:14:15;;;;;;;17.75;11.60;;;5.30;99.90;;;;;;5064010;28;20029;-47
2022/01/15 08:16:40;;;;;;;14.98;11.05;;;5.30;99.90;;;;;;5067017;28;20052;-48
2022/01/15 08:19:06;;;;;;;16.70;12.30;;;5.30;99.90;;;;;;5062968;28;20101;-50
2022/01/15 08:21:31;;;;;;;19.10;12.90;;;5.30;99.90;;;;;;5066813;28;20655;-47
2022/01/15 08:23:57;;;;;;;20.70;12.98;;;5.30;99.90;;;;;;5066867;28;20060;-49
2022/01/15 08:26:22;;;;;;;20.45;14.07;;;5.30;99.90;;;;;;5065535;28;20029;-49
2022/01/15 08:28:48;;;;;;;21.20;14.00;;;5.20;99.90;;;;;;5066412;28;20055;-47
2022/01/15 08:31:14;;;;;;;19.83;13.60;;;5.30;99.90;;;;;;5061445;28;20428;-51
2022/01/15 08:33:39;;;;;;;20.63;13.75;;;5.30;99.90;;;;;;5060084;28;20449;-50
2022/01/15 08:36:05;;;;;;;17.63;11.77;;;5.20;99.90;;;;;;5062070;28;20402;-48
2022/01/15 08:38:30;;;;;;;17.00;12.05;;;5.20;99.90;;;;;;5060073;28;20522;-48
2022/01/15 08:40:56;;;;;;;18.10;12.68;;;5.20;99.90;;;;;;5065841;28;20049;-48
2022/01/15 08:43:22;;;;;;;15.80;12.07;;;5.20;99.90;;;;;;5066898;28;20042;-48
2022/01/15 08:45:48;;;;;;;18.13;12.70;;;5.20;99.90;;;;;;5063077;28;20045;-49
2022/01/15 08:48:19;;;;;;;17.88;12.10;;;5.20;99.90;;;;;;5059780;28;20044;-50
2022/01/15 08:50:46;;;;;;;16.25;11.18;;;5.20;99.90;;;;;;5060620;28;20047;-50
2022/01/15 08:53:13;;;;;;;16.65;11.50;;;5.20;99.90;;;;;;5059718;28;20489;-52
2022/01/15 08:55:39;;;;;;;18.20;12.17;;;5.20;99.90;;;;;;5063241;28;21816;-53
2022/01/15 08:58:05;;;;;;;16.60;12.05;;;5.20;99.90;;;;;;5062499;28;20072;-50
2022/01/15 09:00:30;;;;;;;15.30;11.18;;;5.20;99.90;;;;;;5060743;28;20044;-51
2022/01/15 09:02:56;;;;;;;12.95;9.93;;;5.20;99.90;;;;;;5060052;28;20044;-49
2022/01/15 09:05:23;;;;;;;13.38;10.30;;;5.20;99.90;;;;;;5063273;28;20102;-48
2022/01/15 09:07:50;;;;;;;16.20;10.43;;;5.10;99.90;;;;;;5059092;28;20051;-47
2022/01/15 09:10:17;;;;;;;13.70;10.15;;;5.20;99.90;;;;;;5060911;28;20502;-47
2022/01/15 09:12:43;;;;;;;14.32;10.05;;;5.20;99.90;;;;;;5060822;28;20040;-48
2022/01/15 09:15:09;;;;;;;14.90;10.50;;;5.20;99.90;;;;;;5058154;28;20208;-49
2022/01/15 09:17:34;;;;;;;13.82;10.48;;;5.20;99.90;;;;;;5066221;28;20367;-49
2022/01/15 09:20:00;;;;;;;13.32;10.60;;;5.20;99.90;;;;;;5064378;28;20127;-50
2022/01/15 09:22:25;;;;;;;15.70;12.18;;;5.20;99.90;;;;;;5065260;28;20491;-49
2022/01/15 09:24:51;;;;;;;16.05;12.20;;;5.20;99.90;;;;;;5061533;28;20131;-47
2022/01/15 09:30:12;;;;;;;21.80;13.68;;;5.20;99.90;;;;;;5056219;28;20477;-48
2022/01/15 09:32:46;;;;;;;16.75;12.63;;;5.20;99.90;;;;;;5057862;28;20077;-49
2022/01/15 09:35:13;;;;;;;17.77;13.35;;;5.20;99.90;;;;;;5062681;28;20047;-48
2022/01/15 09:37:40;;;;;;;16.48;13.48;;;5.10;99.90;;;;;;5057087;28;20090;-49
2022/01/15 09:40:07;;;;;;;17.55;12.93;;;5.20;99.90;;;;;;5054500;28;20145;-47
2022/01/15 09:42:33;;;;;;;16.95;13.43;;;5.20;99.90;;;;;;5055973;28;20048;-49
2022/01/15 09:44:58;;;;;;;16.48;13.40;;;5.20;99.90;;;;;;5061506;28;20505;-48
2022/01/15 09:47:26;;;;;;;17.75;13.57;;;5.20;99.90;;;;;;5056757;28;20049;-49
2022/01/15 09:49:53;;;;;;;17.75;13.32;;;5.20;99.90;;;;;;5057479;28;20104;-49
2022/01/15 09:52:19;;;;;;;16.80;13.23;;;5.20;99.90;;;;;;5057596;28;20483;-50
2022/01/15 09:54:45;;;;;;;17.60;13.57;;;5.10;99.90;;;;;;5059905;28;20429;-50
2022/01/15 09:57:10;;;;;;;19.67;13.93;;;5.20;99.90;;;;;;5067263;28;20051;-50
2022/01/15 09:59:36;;;;;;;19.92;14.70;;;5.20;99.90;;;;;;5070539;28;20048;-48
2022/01/15 10:02:04;;;;;;;23.15;15.45;;;5.20;99.90;;;;;;5068506;28;20045;-47
2022/01/15 10:04:32;;;;;;;21.45;15.23;;;5.20;99.90;;;;;;5067698;28;20037;-49
2022/01/15 10:07:08;;;;;;;21.20;15.85;;;5.20;99.90;;;;;;5070069;28;20414;-48
2022/01/15 10:09:34;;;;;;;21.35;16.30;;;5.20;99.90;;;;;;5066224;28;20044;-46
2022/01/15 10:12:00;;;;;;;25.27;17.00;;;5.20;99.90;;;;;;5071507;28;20075;-49
2022/01/15 10:14:29;;;;;;;21.75;16.88;;;5.20;99.90;;;;;;5071268;28;20598;-53
2022/01/15 10:16:57;;;;;;;20.83;15.52;;;;;;;;;;5065809;28;20116;-49
2022/01/15 10:19:26;;;;;;;17.65;13.82;;;;;;;;;;5062520;28;20045;-49
2022/01/15 10:22:09;;;;;;;20.35;15.65;;;;;;;;;;5058659;28;20075;-49
2022/01/15 10:24:35;;;;;;;19.23;14.93;;;;;;;;;;5070395;28;20048;-52
2022/01/15 10:27:21;;;;;;;19.88;16.35;;;;;;;;;;5071039;28;20040;-49
2022/01/15 10:29:56;;;;;;;19.17;15.30;;;;;;;;;;5068386;28;20538;-50
2022/01/15 10:32:23;;;;;;;17.60;14.70;;;;;;;;;;5068774;28;20064;-48
2022/01/15 10:34:49;;;;;;;19.95;15.38;;;;;;;;;;5069247;28;20511;-48
2022/01/15 10:37:17;;;;;;;20.95;16.48;;;;;;;;;;5070906;28;20048;-48
2022/01/15 10:40:03;;;;;;;22.48;16.38;;;;;;;;;;5064245;28;20355;-52
2022/01/15 10:42:29;;;;;;;20.13;15.55;;;;;;;;;;5068433;28;20134;-51
2022/01/15 10:44:57;;;;;;;23.38;17.02;;;;;;;;;;5070159;28;20045;-49
2022/01/15 10:47:26;;;;;;;24.33;17.55;;;;;;;;;;5070868;28;20052;-50
2022/01/15 10:49:52;;;;;;;20.92;15.82;;;;;;;;;;5068746;28;20041;-49
2022/01/15 10:52:19;;;;;;;22.00;16.90;;;;;;;;;;5068361;28;20048;-48
2022/01/15 10:55:00;;;;;;;24.80;18.00;;;;;;;;;;5068178;28;20049;-49
2022/01/15 10:57:27;;;;;;;22.58;17.15;;;;;;;;;;5070808;28;20041;-49
2022/01/15 10:59:55;;;;;;;23.50;17.88;;;;;;;;;;5065650;28;20032;-52
2022/01/15 11:02:21;;;;;;;23.67;17.48;;;;;;;;;;5068735;28;20451;-51
2022/01/15 11:04:47;;;;;;;22.52;17.42;;;;;;;;;;5065940;28;20029;-49
2022/01/15 11:07:17;;;;;;;21.27;16.30;;;;;;;;;;5065969;28;20056;-47
2022/01/15 11:09:43;;;;;;;23.10;16.98;;;;;;;;;;5067865;28;20098;-47
2022/01/15 11:12:10;;;;;;;23.52;16.98;;;;;;;;;;5069351;28;20044;-51
2022/01/15 11:14:36;;;;;;;22.55;17.55;;;;;;;;;;5067512;28;21423;-49
2022/01/15 11:17:03;;;;;;;24.25;18.48;;;;;;;;;;5066724;28;20056;-48
2022/01/15 11:19:33;;;;;;;21.42;17.00;;;;;;;;;;5070275;28;20414;-51
2022/01/15 11:21:59;;;;;;;22.73;17.30;;;;;;;;;;5070031;28;20076;-51
2022/01/15 11:24:25;;;;;;;24.55;18.13;;;;;;;;;;5068464;28;20060;-49
2022/01/15 11:26:55;;;;;;;23.98;17.20;;;;;;;;;;5070279;28;20411;-49
2022/01/15 11:29:21;;;;;;;24.65;18.50;;;;;;;;;;5070475;28;20118;-53
2022/01/15 11:31:47;;;;;;;23.10;17.55;;;;;;;;;;5065720;28;20496;-50
2022/01/15 11:34:14;;;;;;;28.17;18.92;;;;;;;;;;5069309;28;20051;-51
2022/01/15 11:36:43;;;;;;;26.58;19.00;;;;;;;;;;5065114;28;20151;-48
2022/01/15 11:39:12;;;;;;;26.60;18.40;;;5.10;99.90;;;;;;5068054;28;20390;-48
2022/01/15 11:41:40;;;;;;;25.02;18.60;;;5.10;99.90;;;;;;5062341;28;20524;-51
2022/01/15 11:44:11;;;;;;;26.15;19.17;;;5.10;99.90;;;;;;5057145;28;20049;-51
2022/01/15 11:46:52;;;;;;;24.15;18.85;;;5.10;99.90;;;;;;5065978;28;20048;-48
2022/01/15 11:49:23;;;;;;;26.65;18.58;;;5.10;99.90;;;;;;5061820;28;20487;-50
2022/01/15 11:51:50;;;;;;;24.80;18.85;;;5.10;99.90;;;;;;5068111;28;20106;-50
2022/01/15 11:54:15;;;;;;;28.38;18.92;;;5.10;99.90;;;;;;5064645;28;20041;-50
2022/01/15 11:56:44;;;;;;;29.48;19.17;;;5.10;99.90;;;;;;5068498;28;20050;-52
2022/01/15 11:59:26;;;;;;;25.05;17.92;;;;;;;;;;5067706;28;20091;-51
2022/01/15 12:01:54;;;;;;;27.52;18.83;;;5.20;99.90;;;;;;5069250;28;20044;-49
2022/01/15 12:04:26;;;;;;;27.13;19.05;;;5.10;99.90;;;;;;5065633;28;20502;-47
2022/01/15 12:07:01;;;;;;;25.75;18.48;;;5.10;99.90;;;;;;5068888;28;20063;-49
2022/01/15 12:09:43;;;;;;;27.20;19.27;;;5.10;99.90;;;;;;5069628;28;20045;-50
2022/01/15 12:12:18;;;;;;;24.13;18.48;;;5.20;99.90;;;;;;5068972;28;20399;-48
2022/01/15 12:15:12;;;;;;;26.55;19.23;;;5.20;99.90;;;;;;5065888;28;20090;-50
2022/01/15 12:17:50;;;;;;;25.63;18.27;;;5.10;99.90;;;;;;5068345;28;20067;-49
2022/01/15 12:20:20;;;;;;;25.55;18.60;;;5.20;99.90;;;;;;5073535;28;20051;-49
2022/01/15 12:22:48;;;;;;;27.88;19.50;;;5.10;99.90;;;;;;5069101;28;20138;-49
2022/01/15 12:25:34;;;;;;;27.63;19.48;;;5.10;99.90;;;;;;5073056;28;20490;-48
2022/01/15 12:28:03;;;;;;;28.90;20.42;;;5.10;99.90;;;;;;5069300;28;20103;-51
2022/01/15 12:30:31;;;;;;;29.83;20.02;;;5.10;99.90;;;;;;5073180;28;20052;-50
2022/01/15 12:33:00;;;;;;;27.52;19.90;;;5.10;99.90;;;;;;5070230;28;20078;-48
2022/01/15 12:35:29;;;;;;;27.48;20.17;;;5.10;99.90;;;;;;5063056;28;20147;-49
2022/01/15 12:38:20;;;;;;;27.85;19.75;;;5.10;99.90;;;;;;5067700;28;20097;-49
2022/01/15 12:40:47;;;;;;;28.15;20.02;;;5.10;99.90;;;;;;5069248;28;20398;-49
2022/01/15 12:43:17;;;;;;;28.60;20.17;;;5.10;99.90;;;;;;5069980;28;20404;-50
2022/01/15 12:45:46;;;;;;;28.27;20.25;;;5.20;99.90;;;;;;5070843;28;20048;-49
2022/01/15 12:48:17;;;;;;;27.23;19.88;;;5.10;99.90;;;;;;5068901;28;20051;-48
2022/01/15 12:51:01;;;;;;;25.10;19.55;;;5.10;99.90;;;;;;5069431;28;20041;-51
2022/01/15 12:53:32;;;;;;;26.50;19.40;;;5.20;99.90;;;;;;5066785;28;20036;-50
2022/01/15 12:55:58;;;;;;;25.27;19.05;;;5.20;99.90;;;;;;5071831;28;20056;-50
2022/01/15 12:58:27;;;;;;;26.60;20.00;;;5.10;99.90;;;;;;5072747;28;20491;-48
2022/01/15 13:00:54;;;;;;;25.65;19.48;;;5.10;99.90;;;;;;5071382;28;20110;-49
2022/01/15 13:03:23;;;;;;;26.20;19.10;;;5.10;99.90;;;;;;5072080;28;20068;-50
2022/01/15 13:05:55;;;;;;;27.42;20.63;;;5.10;99.90;;;;;;5069066;28;20123;-49
2022/01/15 13:08:29;;;;;;;26.70;19.27;;;5.20;99.90;;;;;;5069369;28;20139;-51
2022/01/15 13:10:59;;;;;;;27.50;20.08;;;5.10;99.90;;;;;;5068565;28;20068;-52
2022/01/15 13:13:24;;;;;;;26.13;19.23;;;5.20;99.90;;;;;;5079315;28;20391;-52
2022/01/15 13:16:09;;;;;;;27.75;19.60;;;5.20;99.90;;;;;;5067899;28;20055;-48
2022/01/15 13:18:37;;;;;;;25.63;19.73;;;5.20;99.90;;;;;;5068664;28;20098;-47
2022/01/15 13:21:06;;;;;;;28.90;21.27;;;5.20;99.90;;;;;;5064422;28;20090;-50
2022/01/15 13:23:40;;;;;;;28.38;20.45;;;5.20;99.90;;;;;;5059806;28;20044;-50
2022/01/15 13:26:08;;;;;;;27.60;20.88;;;5.20;99.90;;;;;;5073322;28;20071;-51
2022/01/15 13:28:35;;;;;;;29.60;20.75;;;5.20;99.90;;;;;;5057655;28;20052;-47
2022/01/15 13:31:01;;;;;;;28.07;20.87;;;5.20;99.90;;;;;;5071441;28;20421;-52
2022/01/15 13:33:38;;;;;;;28.92;22.35;;;5.30;99.90;;;;;;5070162;28;20033;-50
2022/01/15 13:36:06;;;;;;;32.63;23.15;;;5.30;99.90;;;;;;5068369;28;20119;-51
2022/01/15 13:38:33;;;;;;;31.20;25.05;;;5.30;99.90;;;;;;5071287;28;20036;-51
2022/01/15 13:41:11;;;;;;;33.50;24.98;;;5.30;99.90;;;;;;5068901;28;20052;-49
2022/01/15 13:43:39;;;;;;;32.22;24.98;;;5.20;99.90;;;;;;5067889;28;20482;-53
2022/01/15 13:46:20;;;;;;;31.58;25.55;;;5.20;99.90;;;;;;5071298;28;20498;-49
2022/01/15 13:48:53;;;;;;;33.53;26.33;;;5.20;99.90;;;;;;5071066;28;20452;-52
2022/01/15 13:54:06;;;;;;;36.83;27.55;;;5.10;99.90;;;;;;5070288;28;20101;-48
2022/01/15 13:56:32;;;;;;;36.83;28.17;;;5.10;99.90;;;;;;5067422;28;20060;-52
2022/01/15 13:59:03;;;;;;;32.05;24.02;;;5.10;99.90;;;;;;5068192;28;20104;-52
2022/01/15 14:01:37;;;;;;;29.67;21.70;;;5.10;99.90;;;;;;5071248;28;20440;-50
2022/01/15 14:04:33;;;;;;;31.38;23.60;;;5.00;99.90;;;;;;5070462;28;20055;-48
2022/01/15 14:07:05;;;;;;;29.40;23.25;;;5.00;99.90;;;;;;5070557;28;20119;-50